sensor_id;sensor_type;location;lat;lon;timestamp;P1;durP1;ratioP1;P2;durP2;ratioP2
11453;SDS011;5783;55.174;61.310;2023-05-19T00:00:21;3.43;;;2.10;;
11453;SDS011;5783;55.174;61.310;2023-05-19T00:02:50;4.83;;;2.40;;
11453;SDS011;5783;55.174;61.310;2023-05-19T00:05:21;3.03;;;1.90;;
11453;SDS011;5783;55.174;61.310;2023-05-19T00:07:50;2.77;;;2.10;;
11453;SDS011;5783;55.174;61.310;2023-05-19T00:10:21;3.77;;;2.10;;
11453;SDS011;5783;55.174;61.310;2023-05-19T00:12:52;3.20;;;2.07;;
11453;SDS011;5783;55.174;61.310;2023-05-19T00:15:22;2.57;;;2.00;;
11453;SDS011;5783;55.174;61.310;2023-05-19T00:17:51;2.67;;;1.90;;
11453;SDS011;5783;55.174;61.310;2023-05-19T00:20:20;4.67;;;2.00;;
11453;SDS011;5783;55.174;61.310;2023-05-19T00:23:09;2.63;;;1.97;;
11453;SDS011;5783;55.174;61.310;2023-05-19T00:25:38;2.90;;;1.93;;
11453;SDS011;5783;55.174;61.310;2023-05-19T00:28:07;2.90;;;2.00;;
11453;SDS011;5783;55.174;61.310;2023-05-19T00:30:37;2.03;;;1.70;;
11453;SDS011;5783;55.174;61.310;2023-05-19T00:33:06;2.57;;;1.90;;
11453;SDS011;5783;55.174;61.310;2023-05-19T00:35:35;3.37;;;2.20;;
11453;SDS011;5783;55.174;61.310;2023-05-19T00:38:05;2.97;;;1.90;;
11453;SDS011;5783;55.174;61.310;2023-05-19T00:40:34;4.70;;;1.80;;
11453;SDS011;5783;55.174;61.310;2023-05-19T00:43:03;2.43;;;1.97;;
11453;SDS011;5783;55.174;61.310;2023-05-19T00:45:33;6.07;;;2.13;;
11453;SDS011;5783;55.174;61.310;2023-05-19T00:48:02;4.73;;;1.87;;
11453;SDS011;5783;55.174;61.310;2023-05-19T00:50:32;5.33;;;1.90;;
11453;SDS011;5783;55.174;61.310;2023-05-19T00:53:01;3.47;;;1.67;;
11453;SDS011;5783;55.174;61.310;2023-05-19T00:55:30;3.37;;;1.80;;
11453;SDS011;5783;55.174;61.310;2023-05-19T00:58:00;3.13;;;1.93;;
11453;SDS011;5783;55.174;61.310;2023-05-19T01:00:30;2.27;;;1.80;;
11453;SDS011;5783;55.174;61.310;2023-05-19T01:03:02;3.30;;;1.90;;
11453;SDS011;5783;55.174;61.310;2023-05-19T01:05:52;3.17;;;2.10;;
11453;SDS011;5783;55.174;61.310;2023-05-19T01:08:21;5.17;;;1.90;;
11453;SDS011;5783;55.174;61.310;2023-05-19T01:10:51;2.47;;;1.90;;
11453;SDS011;5783;55.174;61.310;2023-05-19T01:13:20;2.43;;;1.80;;
11453;SDS011;5783;55.174;61.310;2023-05-19T01:18:42;4.83;;;1.97;;
11453;SDS011;5783;55.174;61.310;2023-05-19T01:27:16;2.70;;;1.77;;
11453;SDS011;5783;55.174;61.310;2023-05-19T01:33:11;2.13;;;1.63;;
11453;SDS011;5783;55.174;61.310;2023-05-19T01:35:42;2.13;;;1.90;;
11453;SDS011;5783;55.174;61.310;2023-05-19T01:38:12;3.50;;;1.90;;
11453;SDS011;5783;55.174;61.310;2023-05-19T01:40:44;3.70;;;1.50;;
11453;SDS011;5783;55.174;61.310;2023-05-19T01:45:47;2.37;;;1.87;;
11453;SDS011;5783;55.174;61.310;2023-05-19T01:48:17;3.83;;;1.87;;
11453;SDS011;5783;55.174;61.310;2023-05-19T01:50:47;3.10;;;1.70;;
11453;SDS011;5783;55.174;61.310;2023-05-19T01:53:17;3.93;;;1.90;;
11453;SDS011;5783;55.174;61.310;2023-05-19T01:55:47;2.53;;;1.73;;
11453;SDS011;5783;55.174;61.310;2023-05-19T02:13:09;5.07;;;1.93;;
11453;SDS011;5783;55.174;61.310;2023-05-19T02:15:41;3.80;;;1.90;;
11453;SDS011;5783;55.174;61.310;2023-05-19T02:18:11;3.83;;;1.90;;
11453;SDS011;5783;55.174;61.310;2023-05-19T02:20:44;2.67;;;1.97;;
11453;SDS011;5783;55.174;61.310;2023-05-19T02:23:13;3.23;;;1.60;;
11453;SDS011;5783;55.174;61.310;2023-05-19T02:25:43;4.17;;;1.90;;
11453;SDS011;5783;55.174;61.310;2023-05-19T02:28:12;2.77;;;1.77;;
11453;SDS011;5783;55.174;61.310;2023-05-19T02:30:41;3.10;;;1.80;;
11453;SDS011;5783;55.174;61.310;2023-05-19T02:33:10;3.40;;;1.87;;
11453;SDS011;5783;55.174;61.310;2023-05-19T02:35:39;3.93;;;1.87;;
11453;SDS011;5783;55.174;61.310;2023-05-19T02:38:08;3.60;;;1.60;;
11453;SDS011;5783;55.174;61.310;2023-05-19T02:40:38;4.17;;;2.00;;
11453;SDS011;5783;55.174;61.310;2023-05-19T02:43:07;4.67;;;1.80;;
11453;SDS011;5783;55.174;61.310;2023-05-19T02:45:36;2.80;;;1.83;;
11453;SDS011;5783;55.174;61.310;2023-05-19T02:48:27;4.27;;;1.80;;
11453;SDS011;5783;55.174;61.310;2023-05-19T02:50:56;2.97;;;1.77;;
11453;SDS011;5783;55.174;61.310;2023-05-19T02:53:25;2.70;;;1.73;;
11453;SDS011;5783;55.174;61.310;2023-05-19T02:55:54;3.13;;;1.80;;
11453;SDS011;5783;55.174;61.310;2023-05-19T02:58:23;5.00;;;1.90;;
11453;SDS011;5783;55.174;61.310;2023-05-19T03:00:52;3.30;;;1.90;;
11453;SDS011;5783;55.174;61.310;2023-05-19T03:03:22;4.27;;;1.97;;
11453;SDS011;5783;55.174;61.310;2023-05-19T03:05:52;5.00;;;1.70;;
11453;SDS011;5783;55.174;61.310;2023-05-19T03:08:21;2.63;;;1.80;;
11453;SDS011;5783;55.174;61.310;2023-05-19T03:10:52;2.63;;;1.83;;
11453;SDS011;5783;55.174;61.310;2023-05-19T03:13:21;4.50;;;1.90;;
11453;SDS011;5783;55.174;61.310;2023-05-19T03:15:51;4.53;;;2.00;;
11453;SDS011;5783;55.174;61.310;2023-05-19T03:18:21;4.60;;;2.10;;
11453;SDS011;5783;55.174;61.310;2023-05-19T03:20:50;4.20;;;1.70;;
11453;SDS011;5783;55.174;61.310;2023-05-19T03:23:20;5.60;;;2.00;;
11453;SDS011;5783;55.174;61.310;2023-05-19T03:25:49;3.90;;;1.83;;
11453;SDS011;5783;55.174;61.310;2023-05-19T03:28:38;3.30;;;1.93;;
11453;SDS011;5783;55.174;61.310;2023-05-19T03:31:07;3.40;;;1.83;;
11453;SDS011;5783;55.174;61.310;2023-05-19T03:33:36;4.53;;;2.00;;
11453;SDS011;5783;55.174;61.310;2023-05-19T03:36:05;5.20;;;1.90;;
11453;SDS011;5783;55.174;61.310;2023-05-19T03:38:35;2.90;;;1.93;;
11453;SDS011;5783;55.174;61.310;2023-05-19T03:41:04;3.20;;;1.97;;
11453;SDS011;5783;55.174;61.310;2023-05-19T03:43:33;2.27;;;1.83;;
11453;SDS011;5783;55.174;61.310;2023-05-19T03:46:02;4.93;;;2.20;;
11453;SDS011;5783;55.174;61.310;2023-05-19T03:48:31;7.43;;;1.93;;
11453;SDS011;5783;55.174;61.310;2023-05-19T03:51:00;3.30;;;1.80;;
11453;SDS011;5783;55.174;61.310;2023-05-19T03:53:30;3.37;;;2.07;;
11453;SDS011;5783;55.174;61.310;2023-05-19T03:55:59;3.13;;;1.90;;
11453;SDS011;5783;55.174;61.310;2023-05-19T03:58:28;3.00;;;1.77;;
11453;SDS011;5783;55.174;61.310;2023-05-19T04:00:57;2.20;;;1.90;;
11453;SDS011;5783;55.174;61.310;2023-05-19T04:03:26;4.13;;;1.80;;
11453;SDS011;5783;55.174;61.310;2023-05-19T04:05:56;3.83;;;1.93;;
11453;SDS011;5783;55.174;61.310;2023-05-19T04:08:25;4.00;;;2.17;;
11453;SDS011;5783;55.174;61.310;2023-05-19T04:10:54;5.37;;;1.93;;
11453;SDS011;5783;55.174;61.310;2023-05-19T04:13:23;3.47;;;2.30;;
11453;SDS011;5783;55.174;61.310;2023-05-19T04:15:52;3.43;;;2.30;;
11453;SDS011;5783;55.174;61.310;2023-05-19T04:18:21;4.37;;;2.20;;
11453;SDS011;5783;55.174;61.310;2023-05-19T04:20:51;2.80;;;1.80;;
11453;SDS011;5783;55.174;61.310;2023-05-19T04:23:20;3.80;;;2.23;;
11453;SDS011;5783;55.174;61.310;2023-05-19T04:25:50;4.47;;;2.20;;
11453;SDS011;5783;55.174;61.310;2023-05-19T04:28:19;3.67;;;2.40;;
11453;SDS011;5783;55.174;61.310;2023-05-19T04:30:48;5.37;;;2.70;;
11453;SDS011;5783;55.174;61.310;2023-05-19T04:33:18;4.90;;;2.70;;
11453;SDS011;5783;55.174;61.310;2023-05-19T04:35:47;6.60;;;2.90;;
11453;SDS011;5783;55.174;61.310;2023-05-19T04:38:16;5.27;;;2.77;;
11453;SDS011;5783;55.174;61.310;2023-05-19T04:40:47;5.60;;;2.67;;
11453;SDS011;5783;55.174;61.310;2023-05-19T04:43:16;3.17;;;2.80;;
11453;SDS011;5783;55.174;61.310;2023-05-19T04:45:47;4.70;;;2.97;;
11453;SDS011;5783;55.174;61.310;2023-05-19T04:48:16;5.70;;;3.07;;
11453;SDS011;5783;55.174;61.310;2023-05-19T04:50:46;14.93;;;3.60;;
11453;SDS011;5783;55.174;61.310;2023-05-19T04:53:16;5.87;;;2.97;;
11453;SDS011;5783;55.174;61.310;2023-05-19T04:55:46;6.37;;;3.23;;
11453;SDS011;5783;55.174;61.310;2023-05-19T04:58:16;8.13;;;3.00;;
11453;SDS011;5783;55.174;61.310;2023-05-19T05:00:45;7.17;;;3.07;;
11453;SDS011;5783;55.174;61.310;2023-05-19T05:03:14;5.73;;;3.33;;
11453;SDS011;5783;55.174;61.310;2023-05-19T05:05:43;7.53;;;3.17;;
11453;SDS011;5783;55.174;61.310;2023-05-19T05:08:12;5.50;;;3.10;;
11453;SDS011;5783;55.174;61.310;2023-05-19T05:10:43;7.43;;;3.03;;
11453;SDS011;5783;55.174;61.310;2023-05-19T05:13:12;6.67;;;3.00;;
11453;SDS011;5783;55.174;61.310;2023-05-19T05:15:41;5.10;;;2.67;;
11453;SDS011;5783;55.174;61.310;2023-05-19T05:18:11;5.80;;;3.10;;
11453;SDS011;5783;55.174;61.310;2023-05-19T05:20:41;5.40;;;2.50;;
11453;SDS011;5783;55.174;61.310;2023-05-19T05:23:11;5.37;;;2.80;;
11453;SDS011;5783;55.174;61.310;2023-05-19T05:25:41;4.60;;;2.83;;
11453;SDS011;5783;55.174;61.310;2023-05-19T05:28:11;6.80;;;2.67;;
11453;SDS011;5783;55.174;61.310;2023-05-19T05:30:41;7.27;;;2.60;;
11453;SDS011;5783;55.174;61.310;2023-05-19T05:33:11;9.47;;;2.77;;
11453;SDS011;5783;55.174;61.310;2023-05-19T05:35:40;6.87;;;2.47;;
11453;SDS011;5783;55.174;61.310;2023-05-19T05:38:11;5.20;;;2.70;;
11453;SDS011;5783;55.174;61.310;2023-05-19T05:40:40;8.23;;;4.10;;
11453;SDS011;5783;55.174;61.310;2023-05-19T05:43:10;12.47;;;6.77;;
11453;SDS011;5783;55.174;61.310;2023-05-19T05:45:39;8.50;;;6.20;;
11453;SDS011;5783;55.174;61.310;2023-05-19T05:48:08;8.57;;;5.77;;
11453;SDS011;5783;55.174;61.310;2023-05-19T05:50:38;10.70;;;6.93;;
11453;SDS011;5783;55.174;61.310;2023-05-19T05:53:08;13.87;;;8.60;;
11453;SDS011;5783;55.174;61.310;2023-05-19T05:55:39;16.07;;;10.87;;
11453;SDS011;5783;55.174;61.310;2023-05-19T05:58:09;11.80;;;8.50;;
11453;SDS011;5783;55.174;61.310;2023-05-19T06:00:40;12.57;;;8.70;;
11453;SDS011;5783;55.174;61.310;2023-05-19T06:03:12;10.63;;;6.97;;
11453;SDS011;5783;55.174;61.310;2023-05-19T06:05:41;15.03;;;9.17;;
11453;SDS011;5783;55.174;61.310;2023-05-19T06:08:10;15.00;;;8.27;;
11453;SDS011;5783;55.174;61.310;2023-05-19T06:10:39;13.17;;;8.87;;
11453;SDS011;5783;55.174;61.310;2023-05-19T06:13:09;9.23;;;7.07;;
11453;SDS011;5783;55.174;61.310;2023-05-19T06:15:38;13.03;;;9.17;;
11453;SDS011;5783;55.174;61.310;2023-05-19T06:18:07;14.73;;;9.50;;
11453;SDS011;5783;55.174;61.310;2023-05-19T06:20:36;16.17;;;10.17;;
11453;SDS011;5783;55.174;61.310;2023-05-19T06:23:05;13.53;;;9.03;;
11453;SDS011;5783;55.174;61.310;2023-05-19T06:25:34;16.03;;;10.57;;
11453;SDS011;5783;55.174;61.310;2023-05-19T06:28:03;16.20;;;11.57;;
11453;SDS011;5783;55.174;61.310;2023-05-19T06:30:32;13.23;;;9.03;;
11453;SDS011;5783;55.174;61.310;2023-05-19T06:33:02;10.40;;;5.13;;
11453;SDS011;5783;55.174;61.310;2023-05-19T06:35:31;11.33;;;5.63;;
11453;SDS011;5783;55.174;61.310;2023-05-19T06:38:00;10.73;;;5.43;;
11453;SDS011;5783;55.174;61.310;2023-05-19T06:40:29;5.13;;;4.33;;
11453;SDS011;5783;55.174;61.310;2023-05-19T06:42:58;8.97;;;4.20;;
11453;SDS011;5783;55.174;61.310;2023-05-19T06:45:27;10.93;;;5.13;;
11453;SDS011;5783;55.174;61.310;2023-05-19T06:47:57;9.17;;;5.03;;
11453;SDS011;5783;55.174;61.310;2023-05-19T06:50:26;6.87;;;3.77;;
11453;SDS011;5783;55.174;61.310;2023-05-19T06:52:55;7.23;;;4.63;;
11453;SDS011;5783;55.174;61.310;2023-05-19T06:55:24;8.57;;;5.13;;
11453;SDS011;5783;55.174;61.310;2023-05-19T06:57:54;8.33;;;4.67;;
11453;SDS011;5783;55.174;61.310;2023-05-19T07:00:23;6.90;;;4.07;;
11453;SDS011;5783;55.174;61.310;2023-05-19T07:02:52;7.23;;;3.53;;
11453;SDS011;5783;55.174;61.310;2023-05-19T07:05:21;6.23;;;3.37;;
11453;SDS011;5783;55.174;61.310;2023-05-19T07:07:50;4.87;;;3.40;;
11453;SDS011;5783;55.174;61.310;2023-05-19T07:10:19;6.90;;;3.50;;
11453;SDS011;5783;55.174;61.310;2023-05-19T07:12:49;8.60;;;3.50;;
11453;SDS011;5783;55.174;61.310;2023-05-19T07:15:18;8.20;;;3.53;;
11453;SDS011;5783;55.174;61.310;2023-05-19T07:17:47;4.33;;;3.43;;
11453;SDS011;5783;55.174;61.310;2023-05-19T07:20:16;9.67;;;3.00;;
11453;SDS011;5783;55.174;61.310;2023-05-19T07:22:46;5.93;;;3.17;;
11453;SDS011;5783;55.174;61.310;2023-05-19T07:25:15;5.00;;;3.00;;
11453;SDS011;5783;55.174;61.310;2023-05-19T07:27:44;6.73;;;2.80;;
11453;SDS011;5783;55.174;61.310;2023-05-19T07:30:13;6.37;;;2.60;;
11453;SDS011;5783;55.174;61.310;2023-05-19T07:32:42;3.53;;;2.30;;
11453;SDS011;5783;55.174;61.310;2023-05-19T07:35:11;6.87;;;2.70;;
11453;SDS011;5783;55.174;61.310;2023-05-19T07:37:41;5.43;;;2.30;;
11453;SDS011;5783;55.174;61.310;2023-05-19T07:40:10;6.47;;;2.40;;
11453;SDS011;5783;55.174;61.310;2023-05-19T07:42:39;5.23;;;2.40;;
11453;SDS011;5783;55.174;61.310;2023-05-19T07:45:09;5.23;;;2.40;;
11453;SDS011;5783;55.174;61.310;2023-05-19T07:47:39;3.23;;;2.13;;
11453;SDS011;5783;55.174;61.310;2023-05-19T07:50:08;3.17;;;2.13;;
11453;SDS011;5783;55.174;61.310;2023-05-19T07:52:37;4.20;;;2.33;;
11453;SDS011;5783;55.174;61.310;2023-05-19T07:55:06;3.83;;;2.00;;
11453;SDS011;5783;55.174;61.310;2023-05-19T07:57:36;5.17;;;1.93;;
11453;SDS011;5783;55.174;61.310;2023-05-19T08:00:05;3.40;;;2.10;;
11453;SDS011;5783;55.174;61.310;2023-05-19T08:02:37;2.83;;;1.90;;
11453;SDS011;5783;55.174;61.310;2023-05-19T08:05:06;4.73;;;2.07;;
11453;SDS011;5783;55.174;61.310;2023-05-19T08:07:36;6.87;;;2.13;;
11453;SDS011;5783;55.174;61.310;2023-05-19T08:10:05;4.87;;;2.00;;
11453;SDS011;5783;55.174;61.310;2023-05-19T08:12:35;3.53;;;1.97;;
11453;SDS011;5783;55.174;61.310;2023-05-19T08:15:04;4.17;;;2.33;;
11453;SDS011;5783;55.174;61.310;2023-05-19T08:17:35;3.47;;;1.90;;
11453;SDS011;5783;55.174;61.310;2023-05-19T08:20:05;4.23;;;1.93;;
11453;SDS011;5783;55.174;61.310;2023-05-19T08:22:35;3.57;;;2.20;;
11453;SDS011;5783;55.174;61.310;2023-05-19T08:25:04;7.87;;;2.13;;
11453;SDS011;5783;55.174;61.310;2023-05-19T08:27:34;7.17;;;2.17;;
11453;SDS011;5783;55.174;61.310;2023-05-19T08:30:03;5.67;;;2.23;;
11453;SDS011;5783;55.174;61.310;2023-05-19T08:32:34;5.77;;;2.40;;
11453;SDS011;5783;55.174;61.310;2023-05-19T08:35:03;4.10;;;2.00;;
11453;SDS011;5783;55.174;61.310;2023-05-19T08:37:32;4.33;;;1.97;;
11453;SDS011;5783;55.174;61.310;2023-05-19T08:40:03;6.10;;;1.93;;
11453;SDS011;5783;55.174;61.310;2023-05-19T08:42:33;3.77;;;1.77;;
11453;SDS011;5783;55.174;61.310;2023-05-19T08:45:03;5.30;;;2.17;;
11453;SDS011;5783;55.174;61.310;2023-05-19T08:47:34;3.87;;;1.70;;
11453;SDS011;5783;55.174;61.310;2023-05-19T08:50:04;3.60;;;2.03;;
11453;SDS011;5783;55.174;61.310;2023-05-19T09:01:09;15.97;;;7.83;;
11453;SDS011;5783;55.174;61.310;2023-05-19T09:04:00;8.03;;;4.67;;
11453;SDS011;5783;55.174;61.310;2023-05-19T09:06:30;9.97;;;6.47;;
11453;SDS011;5783;55.174;61.310;2023-05-19T09:09:00;11.73;;;7.60;;
11453;SDS011;5783;55.174;61.310;2023-05-19T09:11:30;14.47;;;8.83;;
11453;SDS011;5783;55.174;61.310;2023-05-19T09:14:01;12.80;;;7.20;;
11453;SDS011;5783;55.174;61.310;2023-05-19T09:16:31;16.10;;;8.87;;
11453;SDS011;5783;55.174;61.310;2023-05-19T09:19:00;15.27;;;8.80;;
11453;SDS011;5783;55.174;61.310;2023-05-19T09:21:30;11.10;;;6.23;;
11453;SDS011;5783;55.174;61.310;2023-05-19T09:26:50;9.33;;;5.63;;
11453;SDS011;5783;55.174;61.310;2023-05-19T09:29:21;9.57;;;4.40;;
11453;SDS011;5783;55.174;61.310;2023-05-19T09:31:51;9.43;;;4.60;;
11453;SDS011;5783;55.174;61.310;2023-05-19T09:34:42;7.73;;;3.97;;
11453;SDS011;5783;55.174;61.310;2023-05-19T09:37:12;7.70;;;4.00;;
11453;SDS011;5783;55.174;61.310;2023-05-19T09:39:41;5.17;;;3.47;;
11453;SDS011;5783;55.174;61.310;2023-05-19T09:42:13;7.20;;;3.30;;
11453;SDS011;5783;55.174;61.310;2023-05-19T09:44:42;5.93;;;3.00;;
11453;SDS011;5783;55.174;61.310;2023-05-19T09:47:12;6.23;;;3.17;;
11453;SDS011;5783;55.174;61.310;2023-05-19T09:49:44;6.67;;;3.70;;
11453;SDS011;5783;55.174;61.310;2023-05-19T09:52:14;5.57;;;2.57;;
11453;SDS011;5783;55.174;61.310;2023-05-19T09:54:43;6.07;;;3.00;;
11453;SDS011;5783;55.174;61.310;2023-05-19T09:57:14;11.23;;;2.83;;
11453;SDS011;5783;55.174;61.310;2023-05-19T09:59:43;8.57;;;2.77;;
11453;SDS011;5783;55.174;61.310;2023-05-19T10:02:15;5.87;;;2.50;;
11453;SDS011;5783;55.174;61.310;2023-05-19T10:04:46;4.33;;;2.97;;
11453;SDS011;5783;55.174;61.310;2023-05-19T10:07:18;8.87;;;2.83;;
11453;SDS011;5783;55.174;61.310;2023-05-19T10:09:49;10.83;;;4.40;;
11453;SDS011;5783;55.174;61.310;2023-05-19T10:12:20;10.43;;;4.80;;
11453;SDS011;5783;55.174;61.310;2023-05-19T10:14:50;8.17;;;4.53;;
11453;SDS011;5783;55.174;61.310;2023-05-19T10:17:21;16.40;;;5.67;;
11453;SDS011;5783;55.174;61.310;2023-05-19T10:19:53;8.80;;;4.73;;
11453;SDS011;5783;55.174;61.310;2023-05-19T10:22:23;13.60;;;6.40;;
11453;SDS011;5783;55.174;61.310;2023-05-19T10:24:53;12.30;;;6.60;;
11453;SDS011;5783;55.174;61.310;2023-05-19T10:27:22;14.23;;;7.33;;
11453;SDS011;5783;55.174;61.310;2023-05-19T10:29:54;11.73;;;7.20;;
11453;SDS011;5783;55.174;61.310;2023-05-19T10:32:27;15.67;;;7.20;;
11453;SDS011;5783;55.174;61.310;2023-05-19T10:47:20;10.10;;;4.93;;
11453;SDS011;5783;55.174;61.310;2023-05-19T10:50:05;11.47;;;4.77;;
11453;SDS011;5783;55.174;61.310;2023-05-19T11:01:28;7.77;;;3.97;;
11453;SDS011;5783;55.174;61.310;2023-05-19T11:04:14;14.03;;;4.23;;
11453;SDS011;5783;55.174;61.310;2023-05-19T11:06:44;8.83;;;3.70;;
11453;SDS011;5783;55.174;61.310;2023-05-19T11:12:08;8.17;;;3.50;;
11453;SDS011;5783;55.174;61.310;2023-05-19T11:14:37;8.30;;;4.10;;
11453;SDS011;5783;55.174;61.310;2023-05-19T11:17:07;7.37;;;4.40;;
11453;SDS011;5783;55.174;61.310;2023-05-19T11:19:39;7.97;;;4.20;;
11453;SDS011;5783;55.174;61.310;2023-05-19T11:22:10;8.90;;;3.77;;
11453;SDS011;5783;55.174;61.310;2023-05-19T11:27:32;6.10;;;3.97;;
11453;SDS011;5783;55.174;61.310;2023-05-19T11:32:51;6.90;;;4.00;;
11453;SDS011;5783;55.174;61.310;2023-05-19T11:35:22;7.37;;;3.70;;
11453;SDS011;5783;55.174;61.310;2023-05-19T11:37:52;6.97;;;3.53;;
11453;SDS011;5783;55.174;61.310;2023-05-19T11:40:23;9.77;;;3.20;;
11453;SDS011;5783;55.174;61.310;2023-05-19T11:42:53;9.00;;;3.80;;
11453;SDS011;5783;55.174;61.310;2023-05-19T11:45:23;11.03;;;3.70;;
11453;SDS011;5783;55.174;61.310;2023-05-19T11:50:42;10.47;;;3.40;;
11453;SDS011;5783;55.174;61.310;2023-05-19T11:53:11;8.97;;;4.17;;
11453;SDS011;5783;55.174;61.310;2023-05-19T11:55:44;11.17;;;4.93;;
11453;SDS011;5783;55.174;61.310;2023-05-19T11:58:14;14.03;;;5.53;;
11453;SDS011;5783;55.174;61.310;2023-05-19T12:00:43;21.43;;;7.47;;
11453;SDS011;5783;55.174;61.310;2023-05-19T12:03:13;15.73;;;5.20;;
11453;SDS011;5783;55.174;61.310;2023-05-19T12:05:42;11.43;;;4.07;;
11453;SDS011;5783;55.174;61.310;2023-05-19T12:08:15;12.50;;;5.03;;
11453;SDS011;5783;55.174;61.310;2023-05-19T12:13:16;9.60;;;3.50;;
11453;SDS011;5783;55.174;61.310;2023-05-19T12:15:49;10.90;;;4.00;;
11453;SDS011;5783;55.174;61.310;2023-05-19T12:18:19;12.07;;;4.37;;
11453;SDS011;5783;55.174;61.310;2023-05-19T12:20:48;19.57;;;8.23;;
11453;SDS011;5783;55.174;61.310;2023-05-19T12:23:17;13.40;;;4.70;;
11453;SDS011;5783;55.174;61.310;2023-05-19T12:25:47;18.40;;;4.73;;
11453;SDS011;5783;55.174;61.310;2023-05-19T12:28:16;13.60;;;3.70;;
11453;SDS011;5783;55.174;61.310;2023-05-19T12:30:48;15.90;;;5.10;;
11453;SDS011;5783;55.174;61.310;2023-05-19T12:33:18;11.57;;;4.27;;
11453;SDS011;5783;55.174;61.310;2023-05-19T12:35:49;16.90;;;5.57;;
11453;SDS011;5783;55.174;61.310;2023-05-19T12:38:18;11.70;;;4.17;;
11453;SDS011;5783;55.174;61.310;2023-05-19T12:40:48;13.17;;;4.37;;
11453;SDS011;5783;55.174;61.310;2023-05-19T12:43:19;9.33;;;4.07;;
11453;SDS011;5783;55.174;61.310;2023-05-19T12:45:50;12.73;;;4.00;;
11453;SDS011;5783;55.174;61.310;2023-05-19T12:51:28;10.83;;;3.37;;
11453;SDS011;5783;55.174;61.310;2023-05-19T12:53:57;8.33;;;3.13;;
11453;SDS011;5783;55.174;61.310;2023-05-19T12:56:29;8.27;;;2.90;;
11453;SDS011;5783;55.174;61.310;2023-05-19T12:58:59;8.03;;;3.30;;
11453;SDS011;5783;55.174;61.310;2023-05-19T13:01:28;8.23;;;3.10;;
11453;SDS011;5783;55.174;61.310;2023-05-19T13:03:58;11.97;;;3.60;;
11453;SDS011;5783;55.174;61.310;2023-05-19T13:06:27;9.67;;;3.30;;
11453;SDS011;5783;55.174;61.310;2023-05-19T13:08:57;7.03;;;3.33;;
11453;SDS011;5783;55.174;61.310;2023-05-19T13:11:26;7.73;;;3.43;;
11453;SDS011;5783;55.174;61.310;2023-05-19T13:13:56;6.57;;;3.60;;
11453;SDS011;5783;55.174;61.310;2023-05-19T13:16:25;11.33;;;3.33;;
11453;SDS011;5783;55.174;61.310;2023-05-19T13:18:55;9.00;;;3.37;;
11453;SDS011;5783;55.174;61.310;2023-05-19T13:21:25;8.47;;;3.37;;
11453;SDS011;5783;55.174;61.310;2023-05-19T13:23:55;8.50;;;3.20;;
11453;SDS011;5783;55.174;61.310;2023-05-19T13:26:25;8.50;;;3.13;;
11453;SDS011;5783;55.174;61.310;2023-05-19T13:28:54;10.73;;;3.10;;
11453;SDS011;5783;55.174;61.310;2023-05-19T13:31:26;6.17;;;3.10;;
11453;SDS011;5783;55.174;61.310;2023-05-19T13:33:55;6.17;;;2.80;;
11453;SDS011;5783;55.174;61.310;2023-05-19T13:36:26;5.90;;;2.93;;
11453;SDS011;5783;55.174;61.310;2023-05-19T13:38:57;6.67;;;2.87;;
11453;SDS011;5783;55.174;61.310;2023-05-19T13:41:26;5.67;;;2.60;;
11453;SDS011;5783;55.174;61.310;2023-05-19T13:43:56;12.83;;;3.70;;
11453;SDS011;5783;55.174;61.310;2023-05-19T13:46:25;10.90;;;3.53;;
11453;SDS011;5783;55.174;61.310;2023-05-19T13:48:54;10.07;;;3.43;;
11453;SDS011;5783;55.174;61.310;2023-05-19T13:51:24;14.50;;;3.17;;
11453;SDS011;5783;55.174;61.310;2023-05-19T13:53:53;9.27;;;3.50;;
11453;SDS011;5783;55.174;61.310;2023-05-19T13:56:22;10.30;;;2.80;;
11453;SDS011;5783;55.174;61.310;2023-05-19T13:58:51;7.93;;;3.10;;
11453;SDS011;5783;55.174;61.310;2023-05-19T14:01:21;7.20;;;3.00;;
11453;SDS011;5783;55.174;61.310;2023-05-19T14:03:50;8.10;;;3.40;;
11453;SDS011;5783;55.174;61.310;2023-05-19T14:06:20;8.37;;;3.07;;
11453;SDS011;5783;55.174;61.310;2023-05-19T14:08:49;7.80;;;3.03;;
11453;SDS011;5783;55.174;61.310;2023-05-19T14:11:18;11.87;;;3.43;;
11453;SDS011;5783;55.174;61.310;2023-05-19T14:13:48;12.90;;;3.30;;
11453;SDS011;5783;55.174;61.310;2023-05-19T14:16:17;9.23;;;3.33;;
11453;SDS011;5783;55.174;61.310;2023-05-19T14:18:47;10.63;;;3.60;;
11453;SDS011;5783;55.174;61.310;2023-05-19T14:21:17;8.53;;;3.10;;
11453;SDS011;5783;55.174;61.310;2023-05-19T14:23:46;5.60;;;3.10;;
11453;SDS011;5783;55.174;61.310;2023-05-19T14:26:15;8.57;;;3.20;;
11453;SDS011;5783;55.174;61.310;2023-05-19T14:28:44;5.73;;;3.17;;
11453;SDS011;5783;55.174;61.310;2023-05-19T14:31:13;10.67;;;3.13;;
11453;SDS011;5783;55.174;61.310;2023-05-19T14:33:43;9.23;;;3.50;;
11453;SDS011;5783;55.174;61.310;2023-05-19T14:36:12;10.73;;;3.90;;
11453;SDS011;5783;55.174;61.310;2023-05-19T14:38:41;9.13;;;3.23;;
11453;SDS011;5783;55.174;61.310;2023-05-19T14:41:10;9.00;;;3.57;;
11453;SDS011;5783;55.174;61.310;2023-05-19T14:43:39;11.83;;;3.50;;
11453;SDS011;5783;55.174;61.310;2023-05-19T14:46:08;11.77;;;3.40;;
11453;SDS011;5783;55.174;61.310;2023-05-19T14:48:38;10.83;;;3.40;;
11453;SDS011;5783;55.174;61.310;2023-05-19T14:51:07;10.70;;;3.60;;
11453;SDS011;5783;55.174;61.310;2023-05-19T14:53:36;10.50;;;3.73;;
11453;SDS011;5783;55.174;61.310;2023-05-19T14:56:06;12.97;;;3.90;;
11453;SDS011;5783;55.174;61.310;2023-05-19T14:58:35;7.60;;;3.03;;
11453;SDS011;5783;55.174;61.310;2023-05-19T15:01:04;5.40;;;2.93;;
11453;SDS011;5783;55.174;61.310;2023-05-19T15:03:33;9.97;;;2.73;;
11453;SDS011;5783;55.174;61.310;2023-05-19T15:06:06;10.17;;;3.07;;
11453;SDS011;5783;55.174;61.310;2023-05-19T15:08:53;6.13;;;3.23;;
11453;SDS011;5783;55.174;61.310;2023-05-19T15:11:22;5.97;;;2.90;;
11453;SDS011;5783;55.174;61.310;2023-05-19T15:13:51;6.47;;;2.87;;
11453;SDS011;5783;55.174;61.310;2023-05-19T15:16:20;6.20;;;2.80;;
11453;SDS011;5783;55.174;61.310;2023-05-19T15:18:49;6.97;;;3.10;;
11453;SDS011;5783;55.174;61.310;2023-05-19T15:21:18;6.13;;;2.93;;
11453;SDS011;5783;55.174;61.310;2023-05-19T15:23:48;4.20;;;2.70;;
11453;SDS011;5783;55.174;61.310;2023-05-19T15:26:17;5.47;;;2.70;;
11453;SDS011;5783;55.174;61.310;2023-05-19T15:28:46;4.80;;;3.00;;
11453;SDS011;5783;55.174;61.310;2023-05-19T15:31:15;4.20;;;2.73;;
11453;SDS011;5783;55.174;61.310;2023-05-19T15:33:44;3.93;;;2.63;;
11453;SDS011;5783;55.174;61.310;2023-05-19T15:36:13;4.23;;;2.97;;
11453;SDS011;5783;55.174;61.310;2023-05-19T15:38:44;6.23;;;3.00;;
11453;SDS011;5783;55.174;61.310;2023-05-19T15:41:13;5.40;;;3.00;;
11453;SDS011;5783;55.174;61.310;2023-05-19T15:43:42;5.07;;;3.00;;
11453;SDS011;5783;55.174;61.310;2023-05-19T15:46:12;6.70;;;2.87;;
11453;SDS011;5783;55.174;61.310;2023-05-19T15:48:42;4.63;;;2.77;;
11453;SDS011;5783;55.174;61.310;2023-05-19T15:51:11;4.47;;;2.83;;
11453;SDS011;5783;55.174;61.310;2023-05-19T15:53:41;4.27;;;2.90;;
11453;SDS011;5783;55.174;61.310;2023-05-19T15:56:10;5.13;;;2.73;;
11453;SDS011;5783;55.174;61.310;2023-05-19T15:58:39;5.07;;;2.97;;
11453;SDS011;5783;55.174;61.310;2023-05-19T16:01:08;5.13;;;3.03;;
11453;SDS011;5783;55.174;61.310;2023-05-19T16:03:38;5.30;;;3.00;;
11453;SDS011;5783;55.174;61.310;2023-05-19T16:06:08;3.67;;;2.63;;
11453;SDS011;5783;55.174;61.310;2023-05-19T16:08:37;5.97;;;3.23;;
11453;SDS011;5783;55.174;61.310;2023-05-19T16:11:06;4.80;;;2.90;;
11453;SDS011;5783;55.174;61.310;2023-05-19T16:13:35;8.03;;;3.50;;
11453;SDS011;5783;55.174;61.310;2023-05-19T16:16:05;4.13;;;2.90;;
11453;SDS011;5783;55.174;61.310;2023-05-19T16:18:34;5.70;;;3.20;;
11453;SDS011;5783;55.174;61.310;2023-05-19T16:21:03;4.97;;;2.80;;